Data for 12/12/2015

Time Sea-Level Adjusted Pressure Absolute Pressure Temperature Relative Humidity Dew Point   
(mb) (inHg) (mb) (inHg) (C) (F) (%) (C) (F)
00:05 1010 29.83 839 24.78 -3.9 25 64 -9.7 14.5
00:10 1010 29.83 839 24.78 -3.9 25 63 -9.9 14.2
00:15 1010 29.83 839 24.78 -3.8 25.2 63 -9.9 14.2
00:20 1010 29.83 839 24.78 -3.9 24.9 63 -9.9 14.2
00:25 1010 29.83 839 24.78 -4.1 24.6 65 -9.8 14.4
00:30 1010 29.83 839 24.78 -4.1 24.7 64 -9.8 14.3
00:35 1010 29.83 839 24.78 -3.9 25 64 -9.8 14.4
00:40 1010 29.83 839 24.78 -3.9 25 64 -9.7 14.5
00:45 1010 29.83 839 24.78 -4 24.8 64 -9.8 14.4
00:50 1010 29.83 839 24.78 -4 24.8 64 -9.9 14.2
00:55 1010 29.83 839 24.78 -4.2 24.5 64 -10 14
01:00 1010 29.83 839 24.78 -4.4 24.1 65 -10 14
01:05 1010 29.83 839 24.78 -4.6 23.8 65 -10.1 13.8
01:10 1010 29.83 839 24.78 -4.4 24.1 64 -10.2 13.7
01:15 1010 29.83 839 24.78 -4.2 24.5 63 -10.1 13.7
01:20 1010 29.83 839 24.78 -3.9 24.9 63 -10 14
01:25 1010 29.83 839 24.78 -3.9 25.1 63 -10 14.1
01:30 1010 29.83 839 24.78 -3.9 25 64 -9.8 14.3
01:35 1010 29.83 839 24.78 -3.8 25.1 63 -9.9 14.2
01:40 1010 29.83 839 24.78 -3.8 25.1 64 -9.7 14.5
01:45 1010 29.83 839 24.78 -4 24.9 64 -9.7 14.5
01:50 1010 29.83 839 24.78 -4.1 24.7 65 -9.7 14.6
01:55 1010 29.83 840 24.81 -4.2 24.4 65 -9.7 14.5
02:00 1010 29.83 840 24.81 -4.3 24.3 66 -9.7 14.5
02:05 1010 29.83 840 24.81 -4.2 24.5 65 -9.8 14.4
02:10 1010 29.83 840 24.81 -4.1 24.6 65 -9.7 14.6
02:15 1010 29.83 840 24.81 -4.1 24.7 64 -9.8 14.3
02:20 1010 29.83 840 24.81 -3.9 25 64 -9.7 14.5
02:25 1011 29.85 840 24.81 -3.9 25.1 64 -9.7 14.5
02:30 1011 29.85 840 24.81 -3.8 25.1 64 -9.8 14.4
02:35 1011 29.85 840 24.81 -3.9 25 65 -9.6 14.8
02:40 1011 29.85 840 24.81 -3.9 24.9 65 -9.6 14.7
02:45 1011 29.85 840 24.81 -3.9 24.9 65 -9.6 14.6
02:50 1011 29.85 840 24.81 -3.8 25.1 63 -9.8 14.3
02:55 1011 29.85 840 24.81 -3.9 25 65 -9.5 14.9
03:00 1011 29.85 840 24.81 -4.1 24.7 66 -9.5 14.9
03:05 1011 29.85 840 24.81 -4 24.9 65 -9.5 14.9
03:10 1011 29.85 840 24.81 -3.9 25 65 -9.4 15
03:15 1011 29.85 840 24.81 -3.8 25.1 65 -9.5 14.8
03:20 1011 29.85 840 24.81 -3.8 25.2 64 -9.5 14.8
03:25 1011 29.85 840 24.81 -3.5 25.7 62 -9.8 14.3
03:30 1011 29.85 840 24.81 -3.2 26.3 60 -9.8 14.3
03:35 1011 29.85 840 24.81 -3.1 26.4 61 -9.7 14.5
03:40 1011 29.85 840 24.81 -3.2 26.3 61 -9.6 14.7
03:45 1011 29.85 840 24.81 -3.4 25.9 63 -9.4 15.1
03:50 1011 29.85 840 24.81 -3.7 25.3 65 -9.3 15.3
03:55 1011 29.85 840 24.81 -3.9 25 67 -9.2 15.5
04:00 1011 29.85 840 24.81 -4 24.7 67 -9.2 15.4
04:05 1011 29.85 840 24.81 -4 24.8 67 -9.3 15.2
04:10 1011 29.85 840 24.81 -3.9 24.9 65 -9.5 14.9
04:15 1011 29.85 840 24.81 -3.9 25 66 -9.3 15.2
04:20 1011 29.85 840 24.81 -3.8 25.1 65 -9.5 14.8
04:25 1011 29.85 840 24.81 -3.8 25.2 65 -9.5 14.9
04:30 1011 29.85 840 24.81 -3.7 25.3 66 -9.3 15.3
04:35 1011 29.85 840 24.81 -3.9 25 66 -9.3 15.2
04:40 1011 29.85 840 24.81 -3.8 25.2 65 -9.5 14.9
04:45 1011 29.85 840 24.81 -3.7 25.3 65 -9.4 15.1
04:50 1011 29.85 840 24.81 -3.5 25.7 64 -9.4 15.1
04:55 1011 29.85 840 24.81 -3.3 26 64 -9.2 15.4
05:00 1011 29.85 840 24.81 -3.4 25.9 64 -9.2 15.4
05:05 1011 29.85 840 24.81 -3.5 25.7 65 -9.1 15.7
05:10 1011 29.85 840 24.81 -3.6 25.6 66 -9.1 15.7
05:15 1011 29.85 841 24.83 -3.7 25.3 67 -9 15.8
05:20 1011 29.85 840 24.81 -3.8 25.2 67 -9.1 15.7
05:25 1011 29.85 840 24.81 -3.7 25.4 67 -9 15.8
05:30 1011 29.85 840 24.81 -3.7 25.4 67 -8.9 16
05:35 1011 29.85 841 24.83 -3.6 25.4 66 -9.1 15.7
05:40 1011 29.85 841 24.83 -3.6 25.5 66 -9 15.9
05:45 1011 29.85 841 24.83 -3.8 25.1 68 -9 15.8
05:50 1011 29.85 840 24.81 -4 24.9 68 -9 15.8
05:55 1011 29.85 840 24.81 -4 24.8 69 -8.9 16
06:00 1011 29.85 840 24.81 -4 24.8 70 -8.8 16.2
06:05 1011 29.85 840 24.81 -4 24.8 69 -8.8 16.2
06:10 1011 29.85 840 24.81 -4 24.9 70 -8.7 16.3
06:15 1011 29.85 841 24.83 -4 24.7 70 -8.8 16.2
06:20 1011 29.85 841 24.83 -3.9 24.9 69 -8.8 16.2
06:25 1011 29.85 841 24.83 -3.8 25.1 69 -8.6 16.5
06:30 1011 29.85 841 24.83 -3.8 25.2 68 -8.9 16
06:35 1011 29.85 841 24.83 -3.6 25.6 67 -8.8 16.1
06:40 1011 29.85 841 24.83 -3.6 25.6 66 -9 15.8
06:45 1011 29.85 841 24.83 -3.4 25.8 66 -9 15.9
06:50 1012 29.88 841 24.83 -3.4 25.9 66 -8.9 15.9
06:55 1012 29.88 841 24.83 -3.4 26 65 -9 15.8
07:00 1012 29.88 841 24.83 -3.5 25.8 67 -8.8 16.1
07:05 1012 29.88 841 24.83 -3.5 25.7 67 -8.9 16.1
07:10 1012 29.88 841 24.83 -3.7 25.4 68 -8.8 16.1
07:15 1012 29.88 841 24.83 -3.6 25.5 67 -8.8 16.2
07:20 1012 29.88 841 24.83 -3.6 25.5 67 -8.9 16
07:25 1012 29.88 841 24.83 -3.6 25.6 67 -8.8 16.2
07:30 1012 29.88 841 24.83 -3.7 25.4 67 -8.9 16
07:35 1012 29.88 841 24.83 -3.6 25.6 67 -8.9 16
07:40 1012 29.88 841 24.83 -3.5 25.6 67 -8.8 16.1
07:45 1012 29.88 841 24.83 -3.7 25.4 67 -8.8 16.1
07:50 1012 29.88 841 24.83 -3.7 25.3 67 -8.9 15.9
07:55 1012 29.88 841 24.83 -3.7 25.4 67 -9 15.8
08:00 1012 29.88 841 24.83 -3.6 25.5 67 -8.9 16
08:05 1012 29.88 841 24.83 -3.6 25.4 67 -8.9 15.9
08:10 1012 29.88 841 24.83 -3.7 25.3 67 -9 15.9
08:15 1012 29.88 841 24.83 -3.5 25.7 66 -8.9 16
08:20 1012 29.88 842 24.86 -3.4 25.8 66 -8.9 16
08:25 1012 29.88 842 24.86 -3.5 25.7 66 -8.9 16
08:30 1012 29.88 842 24.86 -3.5 25.8 67 -8.8 16.1
08:35 1012 29.88 842 24.86 -3.3 26 66 -8.9 16
08:40 1012 29.88 842 24.86 -3.2 26.2 65 -8.9 16
08:45 1012 29.88 842 24.86 -3.2 26.2 66 -8.8 16.2
08:50 1013 29.91 842 24.86 -3.3 26 67 -8.7 16.4
08:55 1013 29.91 842 24.86 -3.4 26 67 -8.7 16.3
09:00 1013 29.91 842 24.86 -3.3 26 66 -8.7 16.3
09:05 1013 29.91 842 24.86 -3.3 26.1 67 -8.6 16.6
09:10 1013 29.91 842 24.86 -3.3 26.1 67 -8.6 16.6
09:15 1013 29.91 842 24.86 -3.4 25.8 68 -8.5 16.7
09:20 1013 29.91 842 24.86 -3.6 25.6 69 -8.5 16.6
09:25 1013 29.91 842 24.86 -3.7 25.3 69 -8.6 16.4
09:30 1013 29.91 842 24.86 -3.8 25.2 69 -8.7 16.3
09:35 1013 29.91 842 24.86 -3.7 25.4 68 -8.7 16.3
09:40 1013 29.91 842 24.86 -3.6 25.5 68 -8.7 16.4
09:45 1013 29.91 842 24.86 -3.6 25.4 69 -8.6 16.5
09:50 1013 29.91 842 24.86 -3.6 25.5 68 -8.6 16.5
09:55 1013 29.91 842 24.86 -3.6 25.6 68 -8.6 16.6
10:00 1013 29.91 842 24.86 -3.5 25.7 68 -8.5 16.6
10:05 1013 29.91 842 24.86 -3.4 25.9 68 -8.5 16.8
10:10 1013 29.91 842 24.86 -3.3 26.1 68 -8.4 16.9
10:15 1013 29.91 842 24.86 -3 26.6 67 -8.4 17
10:20 1013 29.91 842 24.86 -2.5 27.6 66 -8.1 17.5
10:25 1013 29.91 842 24.86 -2.3 27.8 65 -8.1 17.4
10:30 1013 29.91 842 24.86 -2.2 28 65 -7.9 17.7
10:35 1013 29.91 842 24.86 -1.9 28.6 63 -7.9 17.8
10:40 1013 29.91 842 24.86 -1.6 29.1 62 -8 17.6
10:45 1013 29.91 842 24.86 -1.1 30.1 60 -7.8 17.9
10:50 1013 29.91 842 24.86 -0.8 30.5 60 -7.7 18.2
10:55 1013 29.91 842 24.86 -0.6 31 59 -7.6 18.3
11:00 1013 29.91 842 24.86 -0.2 31.6 58 -7.6 18.4
11:05 1013 29.91 842 24.86 -0 32 57 -7.6 18.3
11:10 1013 29.91 842 24.86 0.2 32.4 56 -7.5 18.5
11:15 1013 29.91 842 24.86 0.7 33.3 54 -7.6 18.4
11:20 1013 29.91 842 24.86 0.9 33.5 53 -7.5 18.4
11:25 1013 29.91 842 24.86 1.2 34.2 51 -8 17.7
11:30 1013 29.91 842 24.86 1.5 34.6 50 -7.7 18.1
11:35 1013 29.91 842 24.86 1.3 34.3 51 -7.7 18.1
11:40 1013 29.91 842 24.86 1.6 34.9 51 -7.6 18.4
11:45 1013 29.91 842 24.86 2.2 36 47 -7.9 17.8
11:50 1013 29.91 842 24.86 2.3 36.2 48 -7.5 18.5
11:55 1013 29.91 842 24.86 2.7 36.9 45 -8 17.7
12:00 1013 29.91 842 24.86 3 37.4 44 -8 17.6
12:05 1013 29.91 842 24.86 2.8 37 47 -7.4 18.7
12:10 1013 29.91 842 24.86 2.6 36.7 43 -8.6 16.4
12:15 1013 29.91 842 24.86 2.7 36.9 43 -8.8 16.2
12:20 1013 29.91 842 24.86 2.9 37.1 44 -8.3 17.1
12:25 1013 29.91 842 24.86 3.3 37.9 39 -9.3 15.3
12:30 1013 29.91 842 24.86 3.2 37.7 40 -9.3 15.3
12:35 1013 29.91 842 24.86 3.1 37.6 42 -8.6 16.4
12:40 1013 29.91 842 24.86 3.2 37.7 41 -8.9 16
12:45 1013 29.91 842 24.86 3.6 38.5 40 -8.7 16.3
12:50 1013 29.91 842 24.86 3.8 38.8 40 -8.5 16.6
12:55 1013 29.91 842 24.86 4.1 39.3 38 -9.1 15.6
13:00 1013 29.91 842 24.86 4.4 39.9 36 -9.3 15.3
13:05 1012 29.88 842 24.86 4.6 40.2 37 -9 15.8
13:10 1012 29.88 842 24.86 4.6 40.3 36 -9.3 15.3
13:15 1012 29.88 841 24.83 4.9 40.8 36 -9.2 15.5
13:20 1012 29.88 841 24.83 4.4 40 35 -9.8 14.3
13:25 1012 29.88 841 24.83 5 41 34 -9.4 15
13:30 1012 29.88 841 24.83 4.7 40.5 36 -9.1 15.7
13:35 1012 29.88 841 24.83 5 41.1 30 -11.1 12
13:40 1012 29.88 841 24.83 4 39.3 30 -12.2 10.1
13:45 1012 29.88 841 24.83 4.1 39.5 29 -12.3 9.9
13:50 1012 29.88 841 24.83 4.7 40.4 28 -12.1 10.1
13:55 1012 29.88 841 24.83 4.9 40.7 29 -11.8 10.8
14:00 1012 29.88 841 24.83 4.3 39.7 28 -12.5 9.4
14:05 1012 29.88 841 24.83 4.1 39.5 29 -12.4 9.7
14:10 1011 29.85 841 24.83 4.6 40.4 27 -12.6 9.2
14:15 1011 29.85 841 24.83 5.2 41.3 26 -12.8 9
14:20 1011 29.85 841 24.83 5.4 41.7 26 -12.5 9.5
14:25 1011 29.85 841 24.83 5.6 42.1 27 -12.2 10
14:30 1011 29.85 841 24.83 5.7 42.3 25 -12.8 9
14:35 1011 29.85 841 24.83 5.7 42.3 24 -13.1 8.3
14:40 1011 29.85 841 24.83 5.5 42 24 -13.6 7.6
14:45 1011 29.85 840 24.81 5.3 41.6 26 -12.9 8.7
14:50 1011 29.85 840 24.81 5.3 41.5 24 -13.9 7
14:55 1011 29.85 841 24.83 5.8 42.5 23 -13.8 7.2
15:00 1011 29.85 841 24.83 6 42.7 23 -13.5 7.6
15:05 1011 29.85 840 24.81 5.9 42.7 23 -13.7 7.4
15:10 1011 29.85 840 24.81 5.9 42.6 23 -13.8 7.1
15:15 1011 29.85 840 24.81 5.6 42 24 -13.6 7.5
15:20 1011 29.85 841 24.83 5.7 42.3 24 -13.6 7.6
15:25 1011 29.85 841 24.83 5.7 42.3 24 -13.3 8
15:30 1011 29.85 841 24.83 5.8 42.5 26 -12.5 9.6
15:35 1011 29.85 841 24.83 5.9 42.6 29 -11 12.2
15:40 1012 29.88 841 24.83 6 42.7 28 -11.3 11.6
15:45 1012 29.88 841 24.83 6 42.8 28 -11 12.2
15:50 1012 29.88 841 24.83 6 42.8 28 -11.1 12.1
15:55 1012 29.88 841 24.83 5.9 42.7 28 -11.1 11.9
16:00 1012 29.88 841 24.83 5.6 42.2 30 -10.5 13.1
16:05 1012 29.88 841 24.83 5.5 41.9 30 -10.9 12.4
16:10 1012 29.88 841 24.83 5.5 41.8 31 -10.6 13
16:15 1012 29.88 841 24.83 5.4 41.7 30 -10.7 12.7
16:20 1012 29.88 841 24.83 5.4 41.7 31 -10.6 12.9
16:25 1012 29.88 841 24.83 4.5 40.1 32 -10.7 12.7
16:30 1012 29.88 841 24.83 4.7 40.4 32 -10.7 12.7
16:35 1012 29.88 841 24.83 4.2 39.6 33 -10.8 12.6
16:40 1012 29.88 841 24.83 3.8 38.8 33 -10.9 12.3
16:45 1012 29.88 841 24.83 4.4 39.9 33 -10.4 13.3
16:50 1012 29.88 841 24.83 3.9 39.1 34 -10.5 13
16:55 1012 29.88 841 24.83 3.4 38 35 -10.7 12.7
17:00 1012 29.88 841 24.83 3.4 38.2 36 -10.4 13.2
17:05 1012 29.88 841 24.83 3.3 37.9 37 -10.2 13.6
17:10 1012 29.88 841 24.83 3.2 37.8 37 -10.3 13.5
17:15 1012 29.88 841 24.83 3.1 37.6 37 -10.3 13.5
17:20 1012 29.88 841 24.83 3 37.4 39 -9.7 14.6
17:25 1012 29.88 842 24.86 2.8 37 40 -9.5 14.9
17:30 1012 29.88 842 24.86 2.4 36.4 38 -10.5 13.1
17:35 1012 29.88 841 24.83 1.9 35.5 37 -11.3 11.7
17:40 1012 29.88 841 24.83 1.7 35.1 37 -11.4 11.5
17:45 1012 29.88 841 24.83 1.8 35.2 36 -11.7 10.9
17:50 1012 29.88 841 24.83 1.7 35 36 -11.8 10.8
17:55 1012 29.88 841 24.83 1.5 34.6 37 -11.7 10.9
18:00 1012 29.88 841 24.83 1.3 34.4 39 -11.2 11.8
18:05 1012 29.88 841 24.83 1 33.8 40 -11.3 11.7
18:10 1012 29.88 841 24.83 1 33.8 41 -10.9 12.4
18:15 1012 29.88 841 24.83 0.8 33.4 44 -10.3 13.5
18:20 1012 29.88 841 24.83 0.4 32.8 44 -10.5 13.2
18:25 1012 29.88 841 24.83 0.2 32.4 46 -10.1 13.8
18:30 1012 29.88 841 24.83 0.1 32.1 48 -9.6 14.8
18:35 1012 29.88 841 24.83 -0.2 31.7 47 -10.3 13.5
18:40 1012 29.88 841 24.83 -0 31.9 47 -10 14
18:45 1012 29.88 841 24.83 -0.3 31.4 49 -9.9 14.1
18:50 1012 29.88 841 24.83 -0.3 31.5 47 -10.3 13.5
18:55 1012 29.88 841 24.83 -0.2 31.7 46 -10.5 13.2
19:00 1012 29.88 841 24.83 -0.3 31.4 46 -10.6 12.9
19:05 1011 29.85 841 24.83 -0.4 31.3 46 -10.6 12.9
19:10 1011 29.85 841 24.83 -0.6 31 46 -10.7 12.7
19:15 1011 29.85 841 24.83 -0.4 31.3 45 -10.9 12.3
19:20 1011 29.85 841 24.83 -0.1 31.9 46 -10.4 13.3
19:25 1011 29.85 841 24.83 0.2 32.4 43 -11 12.3
19:30 1011 29.85 840 24.81 0.4 32.7 41 -11.5 11.4
19:35 1011 29.85 840 24.81 0.7 33.2 40 -11.4 11.5
19:40 1011 29.85 840 24.81 0.7 33.2 42 -11 12.2
19:45 1011 29.85 840 24.81 0.8 33.4 39 -11.6 11.1
19:50 1011 29.85 840 24.81 0.9 33.7 38 -11.9 10.6
19:55 1011 29.85 840 24.81 0.9 33.6 39 -11.5 11.3
20:00 1011 29.85 840 24.81 0.9 33.6 39 -11.7 11
20:05 1011 29.85 840 24.81 0.9 33.6 39 -11.7 11
20:10 1011 29.85 840 24.81 0.7 33.3 40 -11.5 11.2
20:15 1011 29.85 840 24.81 0.6 33.2 39 -11.9 10.5
20:20 1011 29.85 840 24.81 0.8 33.4 40 -11.3 11.6
20:25 1011 29.85 840 24.81 0.7 33.2 39 -11.8 10.8
20:30 1011 29.85 840 24.81 0.6 33 39 -11.8 10.8
20:35 1011 29.85 840 24.81 0.4 32.7 41 -11.5 11.2
20:40 1011 29.85 840 24.81 0.2 32.4 41 -11.5 11.3
20:45 1011 29.85 840 24.81 -0.1 31.8 40 -12 10.3
20:50 1011 29.85 840 24.81 -0.2 31.6 42 -11.8 10.8
20:55 1011 29.85 840 24.81 -0.4 31.2 43 -11.7 11
21:00 1011 29.85 840 24.81 -0.6 30.9 43 -11.8 10.7
21:05 1011 29.85 840 24.81 -0.7 30.8 42 -12.1 10.1
21:10 1011 29.85 840 24.81 -0.4 31.3 42 -11.8 10.7
21:15 1011 29.85 840 24.81 -0.2 31.7 42 -11.5 11.3
21:20 1011 29.85 840 24.81 -0.2 31.6 42 -11.6 11.1
21:25 1011 29.85 840 24.81 -0.2 31.7 43 -11.3 11.6
21:30 1011 29.85 840 24.81 -0.1 31.9 42 -11.5 11.2
21:35 1011 29.85 840 24.81 0 32 41 -11.7 11
21:40 1011 29.85 840 24.81 0.4 32.7 39 -12 10.4
21:45 1011 29.85 840 24.81 0.5 32.8 41 -11.4 11.5
21:50 1011 29.85 840 24.81 -0.1 31.9 43 -11.2 11.8
21:55 1011 29.85 840 24.81 -0.6 30.9 45 -11.2 11.8
22:00 1010 29.83 840 24.81 -1 30.2 47 -11 12.2
22:05 1011 29.85 840 24.81 -1.2 29.8 48 -11 12.2
22:10 1010 29.83 840 24.81 -0.9 30.3 44 -11.6 11.1
22:15 1010 29.83 840 24.81 -0.9 30.4 46 -11 12.1
22:20 1010 29.83 840 24.81 -1 30.2 44 -11.7 11
22:25 1010 29.83 839 24.78 -0.7 30.7 44 -11.4 11.4
22:30 1010 29.83 839 24.78 -0.7 30.8 44 -11.4 11.6
22:35 1010 29.83 839 24.78 -0.8 30.6 45 -11.2 11.8
22:40 1010 29.83 839 24.78 -0.8 30.5 44 -11.6 11.1
22:45 1010 29.83 839 24.78 -0.9 30.5 47 -10.9 12.4
22:50 1010 29.83 839 24.78 -1.3 29.6 49 -10.6 12.9
22:55 1010 29.83 839 24.78 -1.5 29.4 50 -10.7 12.7
23:00 1010 29.83 839 24.78 -1.5 29.3 50 -10.6 12.9
23:05 1009 29.8 839 24.78 -1.6 29.1 50 -10.7 12.8
23:10 1009 29.8 838 24.75 -1.6 29.2 51 -10.5 13.1
23:15 1009 29.8 838 24.75 -1.5 29.3 49 -11 12.3
23:20 1009 29.8 838 24.75 -1.4 29.5 49 -10.9 12.4
23:25 1009 29.8 838 24.75 -1.3 29.6 48 -10.9 12.4
23:30 1009 29.8 838 24.75 -0.9 30.4 42 -12.3 9.8
23:35 1009 29.8 838 24.75 -0.1 31.8 43 -11.2 11.9
23:40 1009 29.8 838 24.75 -0.4 31.4 47 -10.5 13.2
23:45 1008 29.77 838 24.75 -0.2 31.7 39 -12.6 9.3
23:50 1008 29.77 838 24.75 0.9 33.6 40 -11.3 11.7
23:55 1008 29.77 838 24.75 1 33.8 41 -10.7 12.7
24:00 1008 29.77 837 24.72 0.1 32.1 43 -11.1 12.1